KSPS

Sheppard AFB / Wichita Falls Municipal Airport

Wichita Falls, Texas, USA
KSPS 210520Z 2106/2206 VRB05KT P6SM FEW150 FM211400 30008KT P6SM FEW100
Issued Valid From Valid To
Jun-21 @ 05:20 UTC
(5 hours ago)
Jun-21 @ 06:00 UTC
(4 hours ago)
Jun-22 @ 06:00 UTC
(in 20 hours)
Jun-21 @ 06:00 to Jun-21 @ 14:00
KSPS 210520Z 2106/2206 VRB05KT P6SM FEW150
Wind Visibility Clouds
Variable at 5 knots Greater than 6 miles
  • Few at 15,000' AGL
From Jun-21 @ 14:00 to Jun-22 @ 06:00
FM211400 30008KT P6SM FEW100
Wind Visibility Clouds
300° at 8 knots Greater than 6 miles
  • Few at 10,000' AGL
KSPS 210520Z 2106/2206 VRB05KT P6SM FEW150 FM211400 30008KT P6SM FEW100
Issued Jun-21 @ 05:20 UTC
(5 hours ago)
Valid From Jun-21 @ 06:00 UTC
(4 hours ago)
Valid To Jun-22 @ 06:00 UTC
(in 20 hours)
Jun-21 @ 06:00 - Jun-21 @ 14:00
Wind Visibility
Variable at 5 knots Greater than 6 miles
Clouds
  • Few at 15,000' AGL
From Jun-21 @ 14:00 - Jun-22 @ 06:00
Wind Visibility
300° at 8 knots Greater than 6 miles
Clouds
  • Few at 10,000' AGL